sensor_id;sensor_type;location;lat;lon;timestamp;P1;durP1;ratioP1;P2;durP2;ratioP2
38859;SDS011;24609;48.316;16.174;2023-03-01T00:01:33;9.32;;;6.40;;
38859;SDS011;24609;48.316;16.174;2023-03-01T00:03:59;9.38;;;5.65;;
38859;SDS011;24609;48.316;16.174;2023-03-01T00:06:25;10.00;;;5.22;;
38859;SDS011;24609;48.316;16.174;2023-03-01T00:08:52;10.02;;;6.28;;
38859;SDS011;24609;48.316;16.174;2023-03-01T00:11:19;8.25;;;5.90;;
38859;SDS011;24609;48.316;16.174;2023-03-01T00:13:48;8.65;;;4.78;;
38859;SDS011;24609;48.316;16.174;2023-03-01T00:16:20;13.30;;;6.90;;
38859;SDS011;24609;48.316;16.174;2023-03-01T00:18:54;7.90;;;5.10;;
38859;SDS011;24609;48.316;16.174;2023-03-01T00:21:21;7.88;;;4.57;;
38859;SDS011;24609;48.316;16.174;2023-03-01T00:23:48;9.15;;;4.95;;
38859;SDS011;24609;48.316;16.174;2023-03-01T00:26:15;12.18;;;5.32;;
38859;SDS011;24609;48.316;16.174;2023-03-01T00:28:41;11.05;;;5.70;;
38859;SDS011;24609;48.316;16.174;2023-03-01T00:31:08;7.28;;;4.20;;
38859;SDS011;24609;48.316;16.174;2023-03-01T00:33:36;7.55;;;5.03;;
38859;SDS011;24609;48.316;16.174;2023-03-01T00:36:02;8.35;;;5.30;;
38859;SDS011;24609;48.316;16.174;2023-03-01T00:38:28;6.78;;;5.65;;
38859;SDS011;24609;48.316;16.174;2023-03-01T00:40:55;10.43;;;4.57;;
38859;SDS011;24609;48.316;16.174;2023-03-01T00:43:21;6.80;;;4.93;;
38859;SDS011;24609;48.316;16.174;2023-03-01T00:45:46;10.35;;;4.72;;
38859;SDS011;24609;48.316;16.174;2023-03-01T00:48:12;4.72;;;3.38;;
38859;SDS011;24609;48.316;16.174;2023-03-01T00:50:38;10.20;;;5.90;;
38859;SDS011;24609;48.316;16.174;2023-03-01T00:53:04;10.40;;;5.07;;
38859;SDS011;24609;48.316;16.174;2023-03-01T00:55:30;9.93;;;6.35;;
38859;SDS011;24609;48.316;16.174;2023-03-01T00:57:55;9.63;;;5.40;;
38859;SDS011;24609;48.316;16.174;2023-03-01T01:00:21;11.48;;;5.22;;
38859;SDS011;24609;48.316;16.174;2023-03-01T01:02:47;12.90;;;7.18;;
38859;SDS011;24609;48.316;16.174;2023-03-01T01:05:13;12.20;;;4.70;;
38859;SDS011;24609;48.316;16.174;2023-03-01T01:07:38;9.35;;;4.47;;
38859;SDS011;24609;48.316;16.174;2023-03-01T01:10:04;15.10;;;6.50;;
38859;SDS011;24609;48.316;16.174;2023-03-01T01:12:31;7.63;;;5.55;;
38859;SDS011;24609;48.316;16.174;2023-03-01T01:14:57;19.83;;;5.32;;
38859;SDS011;24609;48.316;16.174;2023-03-01T01:17:23;8.50;;;5.65;;
38859;SDS011;24609;48.316;16.174;2023-03-01T01:19:48;5.50;;;4.97;;
38859;SDS011;24609;48.316;16.174;2023-03-01T01:22:14;9.60;;;5.82;;
38859;SDS011;24609;48.316;16.174;2023-03-01T01:24:40;15.63;;;7.63;;
38859;SDS011;24609;48.316;16.174;2023-03-01T01:27:05;12.75;;;6.75;;
38859;SDS011;24609;48.316;16.174;2023-03-01T01:29:32;6.82;;;5.38;;
38859;SDS011;24609;48.316;16.174;2023-03-01T01:31:57;15.27;;;5.32;;
38859;SDS011;24609;48.316;16.174;2023-03-01T01:34:23;9.07;;;5.32;;
38859;SDS011;24609;48.316;16.174;2023-03-01T01:36:50;19.13;;;6.47;;
38859;SDS011;24609;48.316;16.174;2023-03-01T01:39:18;16.42;;;6.25;;
38859;SDS011;24609;48.316;16.174;2023-03-01T01:41:45;10.10;;;4.55;;
38859;SDS011;24609;48.316;16.174;2023-03-01T01:44:20;7.30;;;5.32;;
38859;SDS011;24609;48.316;16.174;2023-03-01T01:47:00;10.25;;;5.10;;
38859;SDS011;24609;48.316;16.174;2023-03-01T01:49:31;9.57;;;5.10;;
38859;SDS011;24609;48.316;16.174;2023-03-01T01:52:09;8.00;;;5.97;;
38859;SDS011;24609;48.316;16.174;2023-03-01T01:54:57;8.80;;;4.95;;
38859;SDS011;24609;48.316;16.174;2023-03-01T01:57:32;11.98;;;4.90;;
38859;SDS011;24609;48.316;16.174;2023-03-01T02:00:06;17.58;;;6.63;;
38859;SDS011;24609;48.316;16.174;2023-03-01T02:02:34;9.43;;;5.65;;
38859;SDS011;24609;48.316;16.174;2023-03-01T02:05:21;12.60;;;6.32;;
38859;SDS011;24609;48.316;16.174;2023-03-01T02:08:08;11.93;;;5.63;;
38859;SDS011;24609;48.316;16.174;2023-03-01T02:10:37;7.35;;;5.03;;
38859;SDS011;24609;48.316;16.174;2023-03-01T02:13:03;8.95;;;5.82;;
38859;SDS011;24609;48.316;16.174;2023-03-01T02:15:33;12.02;;;4.50;;
38859;SDS011;24609;48.316;16.174;2023-03-01T02:17:59;10.85;;;4.70;;
38859;SDS011;24609;48.316;16.174;2023-03-01T02:23:28;10.40;;;4.13;;
38859;SDS011;24609;48.316;16.174;2023-03-01T02:30:52;11.75;;;5.50;;
38859;SDS011;24609;48.316;16.174;2023-03-01T02:33:38;10.05;;;6.13;;
38859;SDS011;24609;48.316;16.174;2023-03-01T02:36:10;8.27;;;5.22;;
38859;SDS011;24609;48.316;16.174;2023-03-01T02:38:41;18.55;;;6.18;;
38859;SDS011;24609;48.316;16.174;2023-03-01T02:41:07;13.82;;;8.13;;
38859;SDS011;24609;48.316;16.174;2023-03-01T02:43:36;12.63;;;6.75;;
38859;SDS011;24609;48.316;16.174;2023-03-01T02:46:06;13.77;;;7.05;;
38859;SDS011;24609;48.316;16.174;2023-03-01T02:48:41;14.60;;;6.13;;
38859;SDS011;24609;48.316;16.174;2023-03-01T02:56:47;12.70;;;6.40;;
38859;SDS011;24609;48.316;16.174;2023-03-01T02:59:15;8.77;;;4.80;;
38859;SDS011;24609;48.316;16.174;2023-03-01T03:01:44;13.70;;;7.13;;
38859;SDS011;24609;48.316;16.174;2023-03-01T03:04:11;10.45;;;5.20;;
38859;SDS011;24609;48.316;16.174;2023-03-01T03:06:42;8.27;;;5.15;;
38859;SDS011;24609;48.316;16.174;2023-03-01T03:09:11;11.98;;;7.40;;
38859;SDS011;24609;48.316;16.174;2023-03-01T03:11:37;13.50;;;7.75;;
38859;SDS011;24609;48.316;16.174;2023-03-01T03:14:05;9.00;;;6.38;;
38859;SDS011;24609;48.316;16.174;2023-03-01T03:16:39;11.82;;;5.95;;
38859;SDS011;24609;48.316;16.174;2023-03-01T03:19:12;12.10;;;7.35;;
38859;SDS011;24609;48.316;16.174;2023-03-01T03:21:38;15.80;;;7.10;;
38859;SDS011;24609;48.316;16.174;2023-03-01T03:24:04;10.70;;;5.82;;
38859;SDS011;24609;48.316;16.174;2023-03-01T03:26:30;12.80;;;6.40;;
38859;SDS011;24609;48.316;16.174;2023-03-01T03:28:57;16.10;;;6.88;;
38859;SDS011;24609;48.316;16.174;2023-03-01T03:31:22;7.85;;;5.75;;
38859;SDS011;24609;48.316;16.174;2023-03-01T03:33:48;11.98;;;7.43;;
38859;SDS011;24609;48.316;16.174;2023-03-01T03:36:18;15.02;;;5.72;;
38859;SDS011;24609;48.316;16.174;2023-03-01T03:38:45;15.15;;;7.95;;
38859;SDS011;24609;48.316;16.174;2023-03-01T03:41:11;11.27;;;5.70;;
38859;SDS011;24609;48.316;16.174;2023-03-01T03:43:38;9.82;;;4.63;;
38859;SDS011;24609;48.316;16.174;2023-03-01T03:46:05;14.85;;;8.45;;
38859;SDS011;24609;48.316;16.174;2023-03-01T03:48:33;12.82;;;5.85;;
38859;SDS011;24609;48.316;16.174;2023-03-01T03:51:00;9.02;;;6.45;;
38859;SDS011;24609;48.316;16.174;2023-03-01T03:53:26;9.98;;;5.30;;
38859;SDS011;24609;48.316;16.174;2023-03-01T03:55:54;14.60;;;7.80;;
38859;SDS011;24609;48.316;16.174;2023-03-01T03:58:22;9.40;;;5.30;;
38859;SDS011;24609;48.316;16.174;2023-03-01T04:03:16;9.73;;;6.72;;
38859;SDS011;24609;48.316;16.174;2023-03-01T04:05:44;13.18;;;8.10;;
38859;SDS011;24609;48.316;16.174;2023-03-01T04:08:10;18.70;;;7.32;;
38859;SDS011;24609;48.316;16.174;2023-03-01T04:10:40;13.65;;;7.35;;
38859;SDS011;24609;48.316;16.174;2023-03-01T04:13:09;15.60;;;7.18;;
38859;SDS011;24609;48.316;16.174;2023-03-01T04:15:37;17.27;;;7.65;;
38859;SDS011;24609;48.316;16.174;2023-03-01T04:18:03;14.73;;;7.57;;
38859;SDS011;24609;48.316;16.174;2023-03-01T04:20:30;12.65;;;8.10;;
38859;SDS011;24609;48.316;16.174;2023-03-01T04:25:42;13.27;;;7.15;;
38859;SDS011;24609;48.316;16.174;2023-03-01T04:28:18;16.80;;;6.82;;
38859;SDS011;24609;48.316;16.174;2023-03-01T04:30:51;11.15;;;6.75;;
38859;SDS011;24609;48.316;16.174;2023-03-01T04:33:19;11.88;;;6.78;;
38859;SDS011;24609;48.316;16.174;2023-03-01T04:35:45;14.70;;;7.35;;
38859;SDS011;24609;48.316;16.174;2023-03-01T04:38:11;16.75;;;8.27;;
38859;SDS011;24609;48.316;16.174;2023-03-01T04:40:36;16.02;;;7.18;;
38859;SDS011;24609;48.316;16.174;2023-03-01T04:43:03;15.18;;;7.28;;
38859;SDS011;24609;48.316;16.174;2023-03-01T04:45:30;16.35;;;6.15;;
38859;SDS011;24609;48.316;16.174;2023-03-01T04:47:57;10.80;;;7.30;;
38859;SDS011;24609;48.316;16.174;2023-03-01T04:50:23;18.35;;;9.18;;
38859;SDS011;24609;48.316;16.174;2023-03-01T04:52:50;15.23;;;8.52;;
38859;SDS011;24609;48.316;16.174;2023-03-01T04:55:16;15.98;;;8.50;;
38859;SDS011;24609;48.316;16.174;2023-03-01T04:57:42;12.80;;;6.95;;
38859;SDS011;24609;48.316;16.174;2023-03-01T05:00:11;19.38;;;9.95;;
38859;SDS011;24609;48.316;16.174;2023-03-01T05:02:51;15.40;;;7.90;;
38859;SDS011;24609;48.316;16.174;2023-03-01T05:05:20;16.13;;;8.38;;
38859;SDS011;24609;48.316;16.174;2023-03-01T05:07:50;8.50;;;5.35;;
38859;SDS011;24609;48.316;16.174;2023-03-01T05:10:16;17.55;;;9.45;;
38859;SDS011;24609;48.316;16.174;2023-03-01T05:12:42;13.50;;;7.20;;
38859;SDS011;24609;48.316;16.174;2023-03-01T05:15:08;19.55;;;9.55;;
38859;SDS011;24609;48.316;16.174;2023-03-01T05:17:34;18.00;;;7.97;;
38859;SDS011;24609;48.316;16.174;2023-03-01T05:20:00;13.10;;;7.10;;
38859;SDS011;24609;48.316;16.174;2023-03-01T05:22:26;18.00;;;8.18;;
38859;SDS011;24609;48.316;16.174;2023-03-01T05:24:52;15.20;;;7.63;;
38859;SDS011;24609;48.316;16.174;2023-03-01T05:27:19;15.57;;;7.72;;
38859;SDS011;24609;48.316;16.174;2023-03-01T05:29:47;12.88;;;8.60;;
38859;SDS011;24609;48.316;16.174;2023-03-01T05:32:13;16.38;;;8.13;;
38859;SDS011;24609;48.316;16.174;2023-03-01T05:34:40;12.73;;;7.25;;
38859;SDS011;24609;48.316;16.174;2023-03-01T05:37:06;13.77;;;5.40;;
38859;SDS011;24609;48.316;16.174;2023-03-01T05:39:33;12.27;;;7.22;;
38859;SDS011;24609;48.316;16.174;2023-03-01T05:41:59;14.45;;;8.80;;
38859;SDS011;24609;48.316;16.174;2023-03-01T05:44:29;19.50;;;8.57;;
38859;SDS011;24609;48.316;16.174;2023-03-01T05:46:55;16.52;;;7.88;;
38859;SDS011;24609;48.316;16.174;2023-03-01T05:49:21;18.35;;;7.75;;
38859;SDS011;24609;48.316;16.174;2023-03-01T05:51:51;15.45;;;7.75;;
38859;SDS011;24609;48.316;16.174;2023-03-01T05:54:18;20.17;;;8.30;;
38859;SDS011;24609;48.316;16.174;2023-03-01T05:56:45;22.70;;;9.20;;
38859;SDS011;24609;48.316;16.174;2023-03-01T05:59:11;24.10;;;9.10;;
38859;SDS011;24609;48.316;16.174;2023-03-01T06:01:36;20.88;;;9.82;;
38859;SDS011;24609;48.316;16.174;2023-03-01T06:04:03;33.13;;;12.32;;
38859;SDS011;24609;48.316;16.174;2023-03-01T06:06:29;24.88;;;9.18;;
38859;SDS011;24609;48.316;16.174;2023-03-01T06:08:58;11.60;;;8.27;;
38859;SDS011;24609;48.316;16.174;2023-03-01T06:11:24;19.42;;;8.73;;
38859;SDS011;24609;48.316;16.174;2023-03-01T06:13:49;16.08;;;8.07;;
38859;SDS011;24609;48.316;16.174;2023-03-01T06:16:15;13.95;;;8.27;;
38859;SDS011;24609;48.316;16.174;2023-03-01T06:18:41;19.77;;;9.18;;
38859;SDS011;24609;48.316;16.174;2023-03-01T06:21:07;15.68;;;8.73;;
38859;SDS011;24609;48.316;16.174;2023-03-01T06:23:33;13.68;;;8.38;;
38859;SDS011;24609;48.316;16.174;2023-03-01T06:25:59;10.77;;;6.75;;
38859;SDS011;24609;48.316;16.174;2023-03-01T06:28:25;15.27;;;10.63;;
38859;SDS011;24609;48.316;16.174;2023-03-01T06:30:51;28.40;;;11.43;;
38859;SDS011;24609;48.316;16.174;2023-03-01T06:33:17;25.73;;;11.48;;
38859;SDS011;24609;48.316;16.174;2023-03-01T06:35:53;23.15;;;11.07;;
38859;SDS011;24609;48.316;16.174;2023-03-01T06:38:21;19.73;;;11.23;;
38859;SDS011;24609;48.316;16.174;2023-03-01T06:40:52;18.42;;;11.07;;
38859;SDS011;24609;48.316;16.174;2023-03-01T06:43:19;23.98;;;10.48;;
38859;SDS011;24609;48.316;16.174;2023-03-01T06:45:45;21.02;;;11.93;;
38859;SDS011;24609;48.316;16.174;2023-03-01T06:48:11;30.00;;;12.48;;
38859;SDS011;24609;48.316;16.174;2023-03-01T06:50:36;42.70;;;14.90;;
38859;SDS011;24609;48.316;16.174;2023-03-01T06:53:02;19.52;;;11.55;;
38859;SDS011;24609;48.316;16.174;2023-03-01T06:55:29;18.85;;;10.57;;
38859;SDS011;24609;48.316;16.174;2023-03-01T06:57:55;31.73;;;11.00;;
38859;SDS011;24609;48.316;16.174;2023-03-01T07:00:22;23.52;;;11.63;;
38859;SDS011;24609;48.316;16.174;2023-03-01T07:02:48;27.10;;;11.85;;
38859;SDS011;24609;48.316;16.174;2023-03-01T07:05:14;24.02;;;11.27;;
38859;SDS011;24609;48.316;16.174;2023-03-01T07:07:40;25.90;;;13.45;;
38859;SDS011;24609;48.316;16.174;2023-03-01T07:10:06;22.52;;;11.45;;
38859;SDS011;24609;48.316;16.174;2023-03-01T07:12:32;18.67;;;8.57;;
38859;SDS011;24609;48.316;16.174;2023-03-01T07:14:58;25.58;;;12.57;;
38859;SDS011;24609;48.316;16.174;2023-03-01T07:17:23;26.08;;;12.27;;
38859;SDS011;24609;48.316;16.174;2023-03-01T07:19:49;11.45;;;7.68;;
38859;SDS011;24609;48.316;16.174;2023-03-01T07:22:15;20.80;;;11.45;;
38859;SDS011;24609;48.316;16.174;2023-03-01T07:24:41;26.65;;;11.88;;
38859;SDS011;24609;48.316;16.174;2023-03-01T07:27:07;21.67;;;11.60;;
38859;SDS011;24609;48.316;16.174;2023-03-01T07:29:32;23.60;;;13.93;;
38859;SDS011;24609;48.316;16.174;2023-03-01T07:31:58;29.27;;;13.38;;
38859;SDS011;24609;48.316;16.174;2023-03-01T07:34:24;24.85;;;13.02;;
38859;SDS011;24609;48.316;16.174;2023-03-01T07:36:50;23.75;;;11.57;;
38859;SDS011;24609;48.316;16.174;2023-03-01T07:39:15;23.90;;;13.15;;
38859;SDS011;24609;48.316;16.174;2023-03-01T07:41:41;26.25;;;11.95;;
38859;SDS011;24609;48.316;16.174;2023-03-01T07:44:07;28.83;;;14.35;;
38859;SDS011;24609;48.316;16.174;2023-03-01T07:46:32;25.92;;;12.52;;
38859;SDS011;24609;48.316;16.174;2023-03-01T07:48:58;27.67;;;14.25;;
38859;SDS011;24609;48.316;16.174;2023-03-01T07:51:24;34.03;;;14.55;;
38859;SDS011;24609;48.316;16.174;2023-03-01T07:53:49;37.47;;;13.60;;
38859;SDS011;24609;48.316;16.174;2023-03-01T07:56:15;29.83;;;12.63;;
38859;SDS011;24609;48.316;16.174;2023-03-01T07:58:43;24.60;;;13.02;;
38859;SDS011;24609;48.316;16.174;2023-03-01T08:01:11;22.30;;;12.50;;
38859;SDS011;24609;48.316;16.174;2023-03-01T08:03:38;24.65;;;12.70;;
38859;SDS011;24609;48.316;16.174;2023-03-01T08:06:05;28.17;;;13.43;;
38859;SDS011;24609;48.316;16.174;2023-03-01T08:08:33;22.77;;;11.07;;
38859;SDS011;24609;48.316;16.174;2023-03-01T08:10:59;24.05;;;11.63;;
38859;SDS011;24609;48.316;16.174;2023-03-01T08:13:26;30.02;;;11.18;;
38859;SDS011;24609;48.316;16.174;2023-03-01T08:15:52;29.92;;;12.73;;
38859;SDS011;24609;48.316;16.174;2023-03-01T08:18:19;30.75;;;14.90;;
38859;SDS011;24609;48.316;16.174;2023-03-01T08:20:46;24.25;;;12.50;;
38859;SDS011;24609;48.316;16.174;2023-03-01T08:23:12;28.52;;;12.45;;
38859;SDS011;24609;48.316;16.174;2023-03-01T08:25:38;20.50;;;10.55;;
38859;SDS011;24609;48.316;16.174;2023-03-01T08:28:04;21.77;;;11.43;;
38859;SDS011;24609;48.316;16.174;2023-03-01T08:30:30;23.65;;;12.02;;
38859;SDS011;24609;48.316;16.174;2023-03-01T08:32:56;24.33;;;12.65;;
38859;SDS011;24609;48.316;16.174;2023-03-01T08:35:22;23.38;;;11.77;;
38859;SDS011;24609;48.316;16.174;2023-03-01T08:37:48;23.08;;;12.45;;
38859;SDS011;24609;48.316;16.174;2023-03-01T08:40:13;21.85;;;13.32;;
38859;SDS011;24609;48.316;16.174;2023-03-01T08:42:42;24.70;;;11.82;;
38859;SDS011;24609;48.316;16.174;2023-03-01T08:45:08;21.48;;;10.75;;
38859;SDS011;24609;48.316;16.174;2023-03-01T08:47:35;24.63;;;13.57;;
38859;SDS011;24609;48.316;16.174;2023-03-01T08:50:01;26.08;;;13.82;;
38859;SDS011;24609;48.316;16.174;2023-03-01T08:52:27;24.60;;;12.48;;
38859;SDS011;24609;48.316;16.174;2023-03-01T08:54:55;31.15;;;13.57;;
38859;SDS011;24609;48.316;16.174;2023-03-01T08:57:21;34.38;;;14.38;;
38859;SDS011;24609;48.316;16.174;2023-03-01T08:59:47;26.33;;;12.82;;
38859;SDS011;24609;48.316;16.174;2023-03-01T09:02:14;30.23;;;13.93;;
38859;SDS011;24609;48.316;16.174;2023-03-01T09:04:41;29.00;;;12.57;;
38859;SDS011;24609;48.316;16.174;2023-03-01T09:07:07;26.90;;;12.57;;
38859;SDS011;24609;48.316;16.174;2023-03-01T09:09:33;23.55;;;12.13;;
38859;SDS011;24609;48.316;16.174;2023-03-01T09:11:59;27.65;;;13.23;;
38859;SDS011;24609;48.316;16.174;2023-03-01T09:14:25;25.05;;;12.75;;
38859;SDS011;24609;48.316;16.174;2023-03-01T09:16:51;24.67;;;11.05;;
38859;SDS011;24609;48.316;16.174;2023-03-01T09:19:17;19.88;;;11.40;;
38859;SDS011;24609;48.316;16.174;2023-03-01T09:21:42;26.88;;;13.70;;
38859;SDS011;24609;48.316;16.174;2023-03-01T09:24:18;27.40;;;12.68;;
38859;SDS011;24609;48.316;16.174;2023-03-01T09:26:48;29.08;;;13.80;;
38859;SDS011;24609;48.316;16.174;2023-03-01T09:29:15;31.40;;;13.30;;
38859;SDS011;24609;48.316;16.174;2023-03-01T09:31:41;27.50;;;12.55;;
38859;SDS011;24609;48.316;16.174;2023-03-01T09:34:07;22.85;;;12.52;;
38859;SDS011;24609;48.316;16.174;2023-03-01T09:36:33;23.73;;;12.82;;
38859;SDS011;24609;48.316;16.174;2023-03-01T09:39:00;24.67;;;12.38;;
38859;SDS011;24609;48.316;16.174;2023-03-01T09:41:42;26.08;;;13.18;;
38859;SDS011;24609;48.316;16.174;2023-03-01T09:47:20;22.67;;;10.70;;
38859;SDS011;24609;48.316;16.174;2023-03-01T09:52:34;25.20;;;12.60;;
38859;SDS011;24609;48.316;16.174;2023-03-01T09:55:12;24.05;;;12.18;;
38859;SDS011;24609;48.316;16.174;2023-03-01T10:00:53;26.95;;;11.88;;
38859;SDS011;24609;48.316;16.174;2023-03-01T10:03:28;22.33;;;12.20;;
38859;SDS011;24609;48.316;16.174;2023-03-01T10:06:18;22.05;;;11.10;;
38859;SDS011;24609;48.316;16.174;2023-03-01T10:08:56;28.90;;;11.40;;
38859;SDS011;24609;48.316;16.174;2023-03-01T10:11:45;25.88;;;12.10;;
38859;SDS011;24609;48.316;16.174;2023-03-01T10:20:14;28.77;;;12.60;;
38859;SDS011;24609;48.316;16.174;2023-03-01T10:22:40;25.73;;;12.38;;
38859;SDS011;24609;48.316;16.174;2023-03-01T10:25:08;19.13;;;10.60;;
38859;SDS011;24609;48.316;16.174;2023-03-01T10:27:53;20.27;;;10.75;;
38859;SDS011;24609;48.316;16.174;2023-03-01T10:30:29;24.92;;;11.23;;
38859;SDS011;24609;48.316;16.174;2023-03-01T10:33:00;18.05;;;9.52;;
38859;SDS011;24609;48.316;16.174;2023-03-01T10:35:27;24.80;;;12.23;;
38859;SDS011;24609;48.316;16.174;2023-03-01T10:40:35;23.75;;;9.40;;
38859;SDS011;24609;48.316;16.174;2023-03-01T10:43:11;19.08;;;9.90;;
38859;SDS011;24609;48.316;16.174;2023-03-01T10:45:38;19.45;;;9.90;;
38859;SDS011;24609;48.316;16.174;2023-03-01T10:50:41;33.05;;;13.55;;
38859;SDS011;24609;48.316;16.174;2023-03-01T10:58:34;23.00;;;11.38;;
38859;SDS011;24609;48.316;16.174;2023-03-01T11:01:05;36.20;;;12.20;;
38859;SDS011;24609;48.316;16.174;2023-03-01T11:13:34;17.02;;;9.10;;
38859;SDS011;24609;48.316;16.174;2023-03-01T11:16:07;21.65;;;11.07;;
38859;SDS011;24609;48.316;16.174;2023-03-01T11:18:36;18.20;;;10.07;;
38859;SDS011;24609;48.316;16.174;2023-03-01T11:21:02;22.05;;;9.77;;
38859;SDS011;24609;48.316;16.174;2023-03-01T11:23:30;21.50;;;9.57;;
38859;SDS011;24609;48.316;16.174;2023-03-01T11:25:58;22.38;;;10.60;;
38859;SDS011;24609;48.316;16.174;2023-03-01T11:28:29;19.95;;;9.43;;
38859;SDS011;24609;48.316;16.174;2023-03-01T11:38:56;18.80;;;9.27;;
38859;SDS011;24609;48.316;16.174;2023-03-01T11:41:28;19.42;;;8.75;;
38859;SDS011;24609;48.316;16.174;2023-03-01T11:46:41;16.38;;;9.23;;
38859;SDS011;24609;48.316;16.174;2023-03-01T11:54:40;16.58;;;7.88;;
38859;SDS011;24609;48.316;16.174;2023-03-01T11:57:20;19.00;;;9.25;;
38859;SDS011;24609;48.316;16.174;2023-03-01T12:19:50;18.42;;;8.88;;
38859;SDS011;24609;48.316;16.174;2023-03-01T12:51:01;19.20;;;8.43;;
38859;SDS011;24609;48.316;16.174;2023-03-01T12:53:50;14.73;;;8.15;;
38859;SDS011;24609;48.316;16.174;2023-03-01T12:56:19;17.73;;;8.48;;
38859;SDS011;24609;48.316;16.174;2023-03-01T12:58:59;17.70;;;8.38;;
38859;SDS011;24609;48.316;16.174;2023-03-01T13:01:45;16.52;;;8.13;;
38859;SDS011;24609;48.316;16.174;2023-03-01T13:07:37;15.68;;;6.40;;
38859;SDS011;24609;48.316;16.174;2023-03-01T13:10:29;13.70;;;7.38;;
38859;SDS011;24609;48.316;16.174;2023-03-01T13:13:14;14.93;;;7.85;;
38859;SDS011;24609;48.316;16.174;2023-03-01T13:15:45;14.10;;;8.00;;
38859;SDS011;24609;48.316;16.174;2023-03-01T13:26:01;17.75;;;8.10;;
38859;SDS011;24609;48.316;16.174;2023-03-01T13:30:59;14.07;;;6.93;;
38859;SDS011;24609;48.316;16.174;2023-03-01T13:35:52;16.90;;;8.20;;
38859;SDS011;24609;48.316;16.174;2023-03-01T13:38:38;14.57;;;7.40;;
38859;SDS011;24609;48.316;16.174;2023-03-01T13:41:13;14.70;;;7.35;;
38859;SDS011;24609;48.316;16.174;2023-03-01T13:44:01;15.23;;;6.82;;
38859;SDS011;24609;48.316;16.174;2023-03-01T13:50:15;18.58;;;8.30;;
38859;SDS011;24609;48.316;16.174;2023-03-01T13:53:02;20.15;;;8.88;;
38859;SDS011;24609;48.316;16.174;2023-03-01T13:55:17;15.02;;;6.97;;
38859;SDS011;24609;48.316;16.174;2023-03-01T13:57:50;17.42;;;7.93;;
38859;SDS011;24609;48.316;16.174;2023-03-01T14:00:33;18.30;;;7.63;;
38859;SDS011;24609;48.316;16.174;2023-03-01T14:03:05;18.20;;;9.45;;
38859;SDS011;24609;48.316;16.174;2023-03-01T14:05:34;14.40;;;7.75;;
38859;SDS011;24609;48.316;16.174;2023-03-01T14:08:01;16.50;;;7.78;;
38859;SDS011;24609;48.316;16.174;2023-03-01T14:10:40;15.32;;;7.43;;
38859;SDS011;24609;48.316;16.174;2023-03-01T14:14:01;21.20;;;8.82;;
38859;SDS011;24609;48.316;16.174;2023-03-01T14:18:47;14.77;;;7.78;;
38859;SDS011;24609;48.316;16.174;2023-03-01T14:21:29;16.67;;;8.75;;
38859;SDS011;24609;48.316;16.174;2023-03-01T14:23:55;24.33;;;10.73;;
38859;SDS011;24609;48.316;16.174;2023-03-01T14:26:22;29.30;;;13.27;;
38859;SDS011;24609;48.316;16.174;2023-03-01T14:28:49;16.85;;;8.10;;
38859;SDS011;24609;48.316;16.174;2023-03-01T14:31:32;20.90;;;8.70;;
38859;SDS011;24609;48.316;16.174;2023-03-01T14:34:01;18.88;;;8.15;;
38859;SDS011;24609;48.316;16.174;2023-03-01T14:36:28;17.23;;;8.30;;
38859;SDS011;24609;48.316;16.174;2023-03-01T14:38:56;19.25;;;9.27;;
38859;SDS011;24609;48.316;16.174;2023-03-01T14:41:30;13.82;;;8.35;;
38859;SDS011;24609;48.316;16.174;2023-03-01T14:46:33;19.38;;;9.07;;
38859;SDS011;24609;48.316;16.174;2023-03-01T14:49:20;26.05;;;11.93;;
38859;SDS011;24609;48.316;16.174;2023-03-01T14:51:53;24.10;;;9.82;;
38859;SDS011;24609;48.316;16.174;2023-03-01T14:57:00;17.85;;;8.85;;
38859;SDS011;24609;48.316;16.174;2023-03-01T14:59:27;20.30;;;9.45;;
38859;SDS011;24609;48.316;16.174;2023-03-01T15:01:53;23.52;;;10.65;;
38859;SDS011;24609;48.316;16.174;2023-03-01T15:04:22;19.98;;;8.82;;
38859;SDS011;24609;48.316;16.174;2023-03-01T15:06:52;18.88;;;8.60;;
38859;SDS011;24609;48.316;16.174;2023-03-01T15:09:20;20.60;;;9.40;;
38859;SDS011;24609;48.316;16.174;2023-03-01T15:11:47;16.73;;;7.78;;
38859;SDS011;24609;48.316;16.174;2023-03-01T15:14:26;19.02;;;10.20;;
38859;SDS011;24609;48.316;16.174;2023-03-01T15:17:21;18.05;;;8.35;;
38859;SDS011;24609;48.316;16.174;2023-03-01T15:20:00;20.10;;;9.23;;
38859;SDS011;24609;48.316;16.174;2023-03-01T15:22:29;20.55;;;9.23;;
38859;SDS011;24609;48.316;16.174;2023-03-01T15:24:55;21.20;;;8.10;;
38859;SDS011;24609;48.316;16.174;2023-03-01T15:27:25;12.52;;;7.63;;
38859;SDS011;24609;48.316;16.174;2023-03-01T15:29:53;16.30;;;7.45;;
38859;SDS011;24609;48.316;16.174;2023-03-01T15:34:50;15.32;;;7.90;;
38859;SDS011;24609;48.316;16.174;2023-03-01T15:37:37;16.55;;;8.55;;
38859;SDS011;24609;48.316;16.174;2023-03-01T15:42:45;16.13;;;7.85;;
38859;SDS011;24609;48.316;16.174;2023-03-01T15:45:21;20.25;;;9.00;;
38859;SDS011;24609;48.316;16.174;2023-03-01T15:47:49;20.35;;;8.40;;
38859;SDS011;24609;48.316;16.174;2023-03-01T15:52:47;11.40;;;7.10;;
38859;SDS011;24609;48.316;16.174;2023-03-01T15:55:18;16.13;;;7.88;;
38859;SDS011;24609;48.316;16.174;2023-03-01T15:57:46;20.13;;;8.77;;
38859;SDS011;24609;48.316;16.174;2023-03-01T16:00:13;19.13;;;7.43;;
38859;SDS011;24609;48.316;16.174;2023-03-01T16:02:40;18.90;;;7.35;;
38859;SDS011;24609;48.316;16.174;2023-03-01T16:07:44;13.98;;;7.45;;
38859;SDS011;24609;48.316;16.174;2023-03-01T16:10:10;23.08;;;7.82;;
38859;SDS011;24609;48.316;16.174;2023-03-01T16:12:35;17.85;;;8.18;;
38859;SDS011;24609;48.316;16.174;2023-03-01T16:15:01;14.93;;;8.00;;
38859;SDS011;24609;48.316;16.174;2023-03-01T16:17:27;19.33;;;7.30;;
38859;SDS011;24609;48.316;16.174;2023-03-01T16:19:53;16.20;;;9.13;;
38859;SDS011;24609;48.316;16.174;2023-03-01T16:22:18;18.85;;;8.43;;
38859;SDS011;24609;48.316;16.174;2023-03-01T16:24:49;20.38;;;8.43;;
38859;SDS011;24609;48.316;16.174;2023-03-01T16:27:15;20.85;;;8.65;;
38859;SDS011;24609;48.316;16.174;2023-03-01T16:29:41;16.17;;;7.95;;
38859;SDS011;24609;48.316;16.174;2023-03-01T16:32:07;17.05;;;8.70;;
38859;SDS011;24609;48.316;16.174;2023-03-01T16:34:32;19.33;;;8.77;;
38859;SDS011;24609;48.316;16.174;2023-03-01T16:36:58;20.02;;;8.65;;
38859;SDS011;24609;48.316;16.174;2023-03-01T16:39:24;18.13;;;9.18;;
38859;SDS011;24609;48.316;16.174;2023-03-01T16:41:49;20.42;;;9.18;;
38859;SDS011;24609;48.316;16.174;2023-03-01T16:44:15;16.52;;;8.30;;
38859;SDS011;24609;48.316;16.174;2023-03-01T16:46:41;19.75;;;8.43;;
38859;SDS011;24609;48.316;16.174;2023-03-01T16:49:07;14.75;;;8.63;;
38859;SDS011;24609;48.316;16.174;2023-03-01T16:51:34;16.23;;;8.38;;
38859;SDS011;24609;48.316;16.174;2023-03-01T16:54:01;15.18;;;8.73;;
38859;SDS011;24609;48.316;16.174;2023-03-01T16:56:27;21.70;;;8.60;;
38859;SDS011;24609;48.316;16.174;2023-03-01T16:58:54;13.55;;;7.72;;
38859;SDS011;24609;48.316;16.174;2023-03-01T17:01:20;16.77;;;8.57;;
38859;SDS011;24609;48.316;16.174;2023-03-01T17:06:16;16.63;;;8.13;;
38859;SDS011;24609;48.316;16.174;2023-03-01T17:08:45;13.90;;;8.40;;